Terminal Aerodrome Forecast
Issued by NWS

Home | Current Version | Previous Version | Text Only | Print | Product List | Glossary On
Versions: 1 2 3 4 5 6 7 8 9 10 11 12 13 14 15 16 17 18 19 20 21 22 23
238
FTUS41 KPBZ 300100 AAA
TAFBVI
TAF AMD
KBVI 300100Z 3001/3024 34005KT P6SM BKN010
     FM301000 VRB03KT 5SM BR SCT015
     FM301400 14005KT P6SM BKN150
     FM302200 11005KT 3SM -RA OVC035
      AMD NOT SKED 3002/3012=

USA.gov is the U.S. government's official web portal to all federal, state and local government web resources and services.